Terminal Aerodrome Forecast
Issued by NWS

Home | Current Version | Previous Version | Text Only | Print | Product List | Glossary Off
Versions: 1 2 3 4 5 6 7 8 9 10 11 12 13 14 15 16 17 18

450
FTUS43 KMPX 231610 AAB
TAFRWF
TAF AMD
KRWF 231610Z 2316/2412 08010KT 2SM TSRA OVC070CB
     FM231800 16012KT 6SM RA VCTS BKN070CB
     FM231900 16012KT P6SM SCT070
     FM232000 16012G18KT P6SM SCT100=

USA.gov is the U.S. government's official web portal to all federal, state and local government web resources and services.